sensor_id;sensor_type;location;lat;lon;timestamp;pressure;altitude;pressure_sealevel;temperature;humidity
37170;BME280;23062;13.952;100.608;2023-02-19T00:00:15;1012.95;;;28.44;54.36
37170;BME280;23062;13.952;100.608;2023-02-19T00:04:40;1013.00;;;28.43;54.61
37170;BME280;23062;13.952;100.608;2023-02-19T00:09:06;1013.07;;;28.39;54.93
37170;BME280;23062;13.952;100.608;2023-02-19T00:13:40;1013.16;;;28.39;54.58
37170;BME280;23062;13.952;100.608;2023-02-19T00:18:07;1013.23;;;28.35;54.40
37170;BME280;23062;13.952;100.608;2023-02-19T00:22:32;1013.26;;;28.37;55.38
37170;BME280;23062;13.952;100.608;2023-02-19T00:26:59;1013.30;;;28.37;55.43
37170;BME280;23062;13.952;100.608;2023-02-19T00:31:27;1013.25;;;28.34;55.04
37170;BME280;23062;13.952;100.608;2023-02-19T00:35:52;1013.31;;;28.43;55.35
37170;BME280;23062;13.952;100.608;2023-02-19T00:40:18;1013.41;;;28.49;55.06
37170;BME280;23062;13.952;100.608;2023-02-19T00:44:44;1013.49;;;28.53;54.83
37170;BME280;23062;13.952;100.608;2023-02-19T00:49:21;1013.57;;;28.55;55.07
37170;BME280;23062;13.952;100.608;2023-02-19T00:53:43;1013.68;;;28.58;55.12
37170;BME280;23062;13.952;100.608;2023-02-19T00:58:08;1013.65;;;28.56;54.40
37170;BME280;23062;13.952;100.608;2023-02-19T01:02:37;1013.68;;;28.60;55.14
37170;BME280;23062;13.952;100.608;2023-02-19T01:07:02;1013.71;;;28.65;56.11
37170;BME280;23062;13.952;100.608;2023-02-19T01:11:29;1013.81;;;28.66;56.61
37170;BME280;23062;13.952;100.608;2023-02-19T01:16:06;1013.82;;;28.53;55.18
37170;BME280;23062;13.952;100.608;2023-02-19T01:20:33;1013.77;;;28.57;56.27
37170;BME280;23062;13.952;100.608;2023-02-19T01:24:58;1013.84;;;28.61;55.13
37170;BME280;23062;13.952;100.608;2023-02-19T01:29:24;1013.92;;;28.69;54.89
37170;BME280;23062;13.952;100.608;2023-02-19T01:33:54;1013.94;;;28.74;54.88
37170;BME280;23062;13.952;100.608;2023-02-19T01:38:20;1013.91;;;28.74;53.94
37170;BME280;23062;13.952;100.608;2023-02-19T01:42:46;1013.91;;;28.78;54.71
37170;BME280;23062;13.952;100.608;2023-02-19T01:47:11;1013.91;;;28.81;54.42
37170;BME280;23062;13.952;100.608;2023-02-19T01:51:40;1013.95;;;28.89;54.53
37170;BME280;23062;13.952;100.608;2023-02-19T01:56:06;1014.05;;;28.95;54.56
37170;BME280;23062;13.952;100.608;2023-02-19T02:00:33;1014.14;;;28.96;54.10
37170;BME280;23062;13.952;100.608;2023-02-19T02:04:59;1014.19;;;28.98;54.08
37170;BME280;23062;13.952;100.608;2023-02-19T02:09:29;1014.21;;;29.03;54.53
37170;BME280;23062;13.952;100.608;2023-02-19T02:14:12;1014.33;;;29.06;54.40
37170;BME280;23062;13.952;100.608;2023-02-19T02:23:26;1014.37;;;29.14;54.81
37170;BME280;23062;13.952;100.608;2023-02-19T02:28:00;1014.40;;;29.15;55.22
37170;BME280;23062;13.952;100.608;2023-02-19T02:32:31;1014.44;;;29.17;55.20
37170;BME280;23062;13.952;100.608;2023-02-19T02:36:57;1014.42;;;29.20;55.19
37170;BME280;23062;13.952;100.608;2023-02-19T02:41:24;1014.43;;;29.21;55.35
37170;BME280;23062;13.952;100.608;2023-02-19T02:45:49;1014.38;;;29.24;55.31
37170;BME280;23062;13.952;100.608;2023-02-19T02:54:48;1014.38;;;29.29;55.27
37170;BME280;23062;13.952;100.608;2023-02-19T02:59:36;1014.28;;;29.29;55.35
37170;BME280;23062;13.952;100.608;2023-02-19T03:04:07;1014.25;;;29.32;55.30
37170;BME280;23062;13.952;100.608;2023-02-19T03:08:37;1014.19;;;29.31;55.43
37170;BME280;23062;13.952;100.608;2023-02-19T03:13:06;1014.12;;;29.34;55.00
37170;BME280;23062;13.952;100.608;2023-02-19T03:17:53;1014.09;;;29.42;55.22
37170;BME280;23062;13.952;100.608;2023-02-19T03:22:37;1014.00;;;29.35;55.04
37170;BME280;23062;13.952;100.608;2023-02-19T03:27:03;1013.91;;;29.41;54.27
37170;BME280;23062;13.952;100.608;2023-02-19T03:31:30;1013.87;;;29.40;54.17
37170;BME280;23062;13.952;100.608;2023-02-19T03:36:01;1013.81;;;29.47;53.57
37170;BME280;23062;13.952;100.608;2023-02-19T03:40:25;1013.68;;;29.42;53.70
37170;BME280;23062;13.952;100.608;2023-02-19T03:50:10;1013.62;;;29.53;53.51
37170;BME280;23062;13.952;100.608;2023-02-19T03:58:59;1013.42;;;29.64;53.04
37170;BME280;23062;13.952;100.608;2023-02-19T04:03:48;1013.34;;;29.71;52.73
37170;BME280;23062;13.952;100.608;2023-02-19T04:08:20;1013.21;;;29.69;52.90
37170;BME280;23062;13.952;100.608;2023-02-19T04:12:46;1013.14;;;29.76;53.03
37170;BME280;23062;13.952;100.608;2023-02-19T04:17:21;1013.10;;;29.85;52.75
37170;BME280;23062;13.952;100.608;2023-02-19T04:21:46;1013.03;;;29.84;52.61
37170;BME280;23062;13.952;100.608;2023-02-19T04:26:15;1012.95;;;29.81;52.49
37170;BME280;23062;13.952;100.608;2023-02-19T04:30:41;1012.92;;;29.85;52.20
37170;BME280;23062;13.952;100.608;2023-02-19T04:35:06;1012.84;;;29.84;52.10
37170;BME280;23062;13.952;100.608;2023-02-19T04:39:32;1012.77;;;29.95;51.10
37170;BME280;23062;13.952;100.608;2023-02-19T04:43:58;1012.70;;;30.03;51.81
37170;BME280;23062;13.952;100.608;2023-02-19T04:48:26;1012.64;;;30.07;51.76
37170;BME280;23062;13.952;100.608;2023-02-19T04:52:53;1012.58;;;30.16;51.05
37170;BME280;23062;13.952;100.608;2023-02-19T04:57:18;1012.49;;;30.19;50.69
37170;BME280;23062;13.952;100.608;2023-02-19T05:01:43;1012.50;;;30.18;51.05
37170;BME280;23062;13.952;100.608;2023-02-19T05:06:11;1012.34;;;30.16;50.33
37170;BME280;23062;13.952;100.608;2023-02-19T05:10:36;1012.26;;;30.24;49.92
37170;BME280;23062;13.952;100.608;2023-02-19T05:15:02;1012.18;;;30.46;47.24
37170;BME280;23062;13.952;100.608;2023-02-19T05:19:27;1012.00;;;30.35;47.56
37170;BME280;23062;13.952;100.608;2023-02-19T05:23:55;1011.90;;;30.43;47.13
37170;BME280;23062;13.952;100.608;2023-02-19T05:28:21;1011.86;;;30.46;47.05
37170;BME280;23062;13.952;100.608;2023-02-19T05:32:48;1011.78;;;30.45;46.78
37170;BME280;23062;13.952;100.608;2023-02-19T05:37:13;1011.69;;;30.55;46.15
37170;BME280;23062;13.952;100.608;2023-02-19T05:41:39;1011.64;;;30.47;47.36
37170;BME280;23062;13.952;100.608;2023-02-19T05:46:05;1011.53;;;30.47;47.83
37170;BME280;23062;13.952;100.608;2023-02-19T05:50:32;1011.42;;;30.53;47.32
37170;BME280;23062;13.952;100.608;2023-02-19T05:54:58;1011.38;;;30.67;46.91
37170;BME280;23062;13.952;100.608;2023-02-19T05:59:27;1011.31;;;30.78;46.75
37170;BME280;23062;13.952;100.608;2023-02-19T06:03:52;1011.16;;;30.69;46.80
37170;BME280;23062;13.952;100.608;2023-02-19T06:08:18;1011.11;;;30.63;47.20
37170;BME280;23062;13.952;100.608;2023-02-19T06:12:46;1011.04;;;30.66;47.31
37170;BME280;23062;13.952;100.608;2023-02-19T06:17:11;1010.89;;;30.67;47.30
37170;BME280;23062;13.952;100.608;2023-02-19T06:21:36;1010.79;;;30.54;47.93
37170;BME280;23062;13.952;100.608;2023-02-19T06:26:13;1010.64;;;30.56;47.91
37170;BME280;23062;13.952;100.608;2023-02-19T06:30:38;1010.55;;;30.58;48.23
37170;BME280;23062;13.952;100.608;2023-02-19T06:35:05;1010.43;;;30.57;48.74
37170;BME280;23062;13.952;100.608;2023-02-19T06:39:31;1010.37;;;30.61;48.91
37170;BME280;23062;13.952;100.608;2023-02-19T06:43:57;1010.23;;;30.59;48.88
37170;BME280;23062;13.952;100.608;2023-02-19T06:48:22;1010.16;;;30.64;48.78
37170;BME280;23062;13.952;100.608;2023-02-19T06:52:51;1010.05;;;30.73;48.86
37170;BME280;23062;13.952;100.608;2023-02-19T06:57:17;1009.99;;;30.62;49.71
37170;BME280;23062;13.952;100.608;2023-02-19T07:01:43;1009.79;;;30.66;49.93
37170;BME280;23062;13.952;100.608;2023-02-19T07:06:09;1009.67;;;30.73;50.17
37170;BME280;23062;13.952;100.608;2023-02-19T07:10:34;1009.61;;;30.77;49.84
37170;BME280;23062;13.952;100.608;2023-02-19T07:15:00;1009.54;;;30.74;50.18
37170;BME280;23062;13.952;100.608;2023-02-19T07:19:29;1009.44;;;30.78;50.64
37170;BME280;23062;13.952;100.608;2023-02-19T07:23:54;1009.38;;;30.72;50.72
37170;BME280;23062;13.952;100.608;2023-02-19T07:28:20;1009.27;;;30.70;50.95
37170;BME280;23062;13.952;100.608;2023-02-19T07:32:45;1009.13;;;30.68;51.56
37170;BME280;23062;13.952;100.608;2023-02-19T07:37:10;1009.10;;;30.69;51.67
37170;BME280;23062;13.952;100.608;2023-02-19T07:41:36;1008.93;;;30.76;51.25
37170;BME280;23062;13.952;100.608;2023-02-19T07:46:09;1008.87;;;30.80;51.05
37170;BME280;23062;13.952;100.608;2023-02-19T07:50:35;1008.83;;;30.72;51.52
37170;BME280;23062;13.952;100.608;2023-02-19T07:55:01;1008.76;;;30.81;51.43
37170;BME280;23062;13.952;100.608;2023-02-19T07:59:27;1008.72;;;30.81;51.57
37170;BME280;23062;13.952;100.608;2023-02-19T08:03:52;1008.71;;;30.82;51.18
37170;BME280;23062;13.952;100.608;2023-02-19T08:08:18;1008.63;;;30.84;50.94
37170;BME280;23062;13.952;100.608;2023-02-19T08:13:05;1008.53;;;30.76;50.99
37170;BME280;23062;13.952;100.608;2023-02-19T08:17:43;1008.57;;;30.83;50.90
37170;BME280;23062;13.952;100.608;2023-02-19T08:22:08;1008.54;;;30.96;50.53
37170;BME280;23062;13.952;100.608;2023-02-19T08:26:34;1008.52;;;31.13;49.37
37170;BME280;23062;13.952;100.608;2023-02-19T08:31:03;1008.47;;;31.13;49.48
37170;BME280;23062;13.952;100.608;2023-02-19T08:35:41;1008.43;;;31.02;50.24
37170;BME280;23062;13.952;100.608;2023-02-19T08:40:05;1008.39;;;30.97;50.64
37170;BME280;23062;13.952;100.608;2023-02-19T08:44:32;1008.35;;;31.00;50.41
37170;BME280;23062;13.952;100.608;2023-02-19T08:48:57;1008.37;;;31.07;50.21
37170;BME280;23062;13.952;100.608;2023-02-19T08:53:22;1008.38;;;31.01;50.57
37170;BME280;23062;13.952;100.608;2023-02-19T08:57:48;1008.31;;;30.97;51.11
37170;BME280;23062;13.952;100.608;2023-02-19T09:02:16;1008.32;;;30.95;51.56
37170;BME280;23062;13.952;100.608;2023-02-19T09:06:42;1008.31;;;30.94;51.98
37170;BME280;23062;13.952;100.608;2023-02-19T09:11:07;1008.35;;;31.03;52.09
37170;BME280;23062;13.952;100.608;2023-02-19T09:15:32;1008.35;;;31.14;51.96
37170;BME280;23062;13.952;100.608;2023-02-19T09:20:01;1008.33;;;31.03;53.21
37170;BME280;23062;13.952;100.608;2023-02-19T09:24:26;1008.34;;;30.98;53.77
37170;BME280;23062;13.952;100.608;2023-02-19T09:28:54;1008.32;;;31.03;53.68
37170;BME280;23062;13.952;100.608;2023-02-19T09:33:20;1008.31;;;31.08;53.54
37170;BME280;23062;13.952;100.608;2023-02-19T09:37:45;1008.36;;;31.16;53.21
37170;BME280;23062;13.952;100.608;2023-02-19T09:42:16;1008.33;;;31.18;53.18
37170;BME280;23062;13.952;100.608;2023-02-19T09:46:49;1008.36;;;31.18;53.07
37170;BME280;23062;13.952;100.608;2023-02-19T09:51:16;1008.38;;;31.17;53.09
37170;BME280;23062;13.952;100.608;2023-02-19T09:55:43;1008.30;;;31.16;53.10
37170;BME280;23062;13.952;100.608;2023-02-19T10:00:19;1008.29;;;31.13;53.20
37170;BME280;23062;13.952;100.608;2023-02-19T10:04:42;1008.32;;;31.12;53.26
37170;BME280;23062;13.952;100.608;2023-02-19T10:13:49;1008.28;;;31.10;53.32
37170;BME280;23062;13.952;100.608;2023-02-19T10:18:16;1008.34;;;31.09;53.36
37170;BME280;23062;13.952;100.608;2023-02-19T10:22:42;1008.38;;;31.08;53.58
37170;BME280;23062;13.952;100.608;2023-02-19T10:27:14;1008.44;;;31.06;53.54
37170;BME280;23062;13.952;100.608;2023-02-19T10:31:42;1008.44;;;31.04;53.59
37170;BME280;23062;13.952;100.608;2023-02-19T10:36:18;1008.44;;;31.03;53.62
37170;BME280;23062;13.952;100.608;2023-02-19T10:40:46;1008.55;;;31.02;53.61
37170;BME280;23062;13.952;100.608;2023-02-19T10:45:21;1008.64;;;31.01;53.63
37170;BME280;23062;13.952;100.608;2023-02-19T10:49:48;1008.68;;;30.99;53.69
37170;BME280;23062;13.952;100.608;2023-02-19T10:54:19;1008.76;;;30.99;53.69
37170;BME280;23062;13.952;100.608;2023-02-19T10:58:48;1008.80;;;30.97;53.76
37170;BME280;23062;13.952;100.608;2023-02-19T11:03:22;1008.88;;;30.97;53.75
37170;BME280;23062;13.952;100.608;2023-02-19T11:07:55;1008.95;;;30.97;53.84
37170;BME280;23062;13.952;100.608;2023-02-19T11:12:29;1008.98;;;30.95;53.94
37170;BME280;23062;13.952;100.608;2023-02-19T11:16:59;1009.01;;;30.94;53.95
37170;BME280;23062;13.952;100.608;2023-02-19T11:21:28;1009.07;;;30.93;54.03
37170;BME280;23062;13.952;100.608;2023-02-19T11:25:56;1009.15;;;30.92;54.14
37170;BME280;23062;13.952;100.608;2023-02-19T11:35:18;1009.26;;;30.90;54.24
37170;BME280;23062;13.952;100.608;2023-02-19T11:39:47;1009.29;;;30.91;54.29
37170;BME280;23062;13.952;100.608;2023-02-19T11:53:52;1009.39;;;30.89;54.31
37170;BME280;23062;13.952;100.608;2023-02-19T12:17:08;1009.72;;;30.84;54.63
37170;BME280;23062;13.952;100.608;2023-02-19T12:45:06;1009.97;;;30.80;54.76
37170;BME280;23062;13.952;100.608;2023-02-19T12:49:42;1009.98;;;30.79;54.78
37170;BME280;23062;13.952;100.608;2023-02-19T12:54:18;1010.07;;;30.79;54.87
37170;BME280;23062;13.952;100.608;2023-02-19T12:58:46;1010.05;;;30.77;54.83
37170;BME280;23062;13.952;100.608;2023-02-19T13:08:12;1010.19;;;30.75;54.90
37170;BME280;23062;13.952;100.608;2023-02-19T13:12:40;1010.24;;;30.75;54.91
37170;BME280;23062;13.952;100.608;2023-02-19T13:17:26;1010.31;;;30.74;54.90
37170;BME280;23062;13.952;100.608;2023-02-19T13:22:02;1010.41;;;30.74;54.89
37170;BME280;23062;13.952;100.608;2023-02-19T13:27:03;1010.46;;;30.72;54.92
37170;BME280;23062;13.952;100.608;2023-02-19T13:36:33;1010.52;;;30.73;54.93
37170;BME280;23062;13.952;100.608;2023-02-19T13:41:02;1010.58;;;30.72;54.95
37170;BME280;23062;13.952;100.608;2023-02-19T13:50:15;1010.68;;;30.70;54.93
37170;BME280;23062;13.952;100.608;2023-02-19T13:54:34;1010.75;;;30.69;55.05
37170;BME280;23062;13.952;100.608;2023-02-19T13:59:24;1010.75;;;30.69;55.06
37170;BME280;23062;13.952;100.608;2023-02-19T14:03:53;1010.82;;;30.68;55.08
37170;BME280;23062;13.952;100.608;2023-02-19T14:12:49;1010.91;;;30.66;55.20
37170;BME280;23062;13.952;100.608;2023-02-19T14:26:50;1011.03;;;30.65;55.24
37170;BME280;23062;13.952;100.608;2023-02-19T14:31:29;1011.07;;;30.64;55.27
37170;BME280;23062;13.952;100.608;2023-02-19T14:40:40;1011.11;;;30.63;55.31
37170;BME280;23062;13.952;100.608;2023-02-19T14:45:12;1011.13;;;30.61;55.35
37170;BME280;23062;13.952;100.608;2023-02-19T14:54:18;1011.25;;;30.64;55.23
37170;BME280;23062;13.952;100.608;2023-02-19T15:03:36;1011.33;;;30.66;55.27
37170;BME280;23062;13.952;100.608;2023-02-19T15:08:13;1011.33;;;30.67;55.30
37170;BME280;23062;13.952;100.608;2023-02-19T15:12:53;1011.41;;;30.67;55.32
37170;BME280;23062;13.952;100.608;2023-02-19T15:17:25;1011.33;;;30.61;55.05
37170;BME280;23062;13.952;100.608;2023-02-19T15:21:51;1011.39;;;30.64;55.23
37170;BME280;23062;13.952;100.608;2023-02-19T15:26:40;1011.39;;;30.66;55.38
37170;BME280;23062;13.952;100.608;2023-02-19T15:31:12;1011.37;;;30.67;55.36
37170;BME280;23062;13.952;100.608;2023-02-19T15:35:35;1011.37;;;30.67;55.38
37170;BME280;23062;13.952;100.608;2023-02-19T15:40:04;1011.35;;;30.66;55.41
37170;BME280;23062;13.952;100.608;2023-02-19T15:44:50;1011.35;;;30.66;55.47
37170;BME280;23062;13.952;100.608;2023-02-19T15:49:18;1011.30;;;30.66;55.49
37170;BME280;23062;13.952;100.608;2023-02-19T15:53:46;1011.27;;;30.65;55.62
37170;BME280;23062;13.952;100.608;2023-02-19T15:58:35;1011.24;;;30.64;55.64
37170;BME280;23062;13.952;100.608;2023-02-19T16:02:57;1011.18;;;30.64;55.72
37170;BME280;23062;13.952;100.608;2023-02-19T16:07:30;1011.15;;;30.64;55.86
37170;BME280;23062;13.952;100.608;2023-02-19T16:11:57;1011.18;;;30.63;55.96
37170;BME280;23062;13.952;100.608;2023-02-19T16:16:34;1011.09;;;30.62;56.01
37170;BME280;23062;13.952;100.608;2023-02-19T16:20:59;1011.07;;;30.62;56.04
37170;BME280;23062;13.952;100.608;2023-02-19T16:29:56;1011.06;;;30.61;56.17
37170;BME280;23062;13.952;100.608;2023-02-19T16:34:42;1011.06;;;30.60;56.21
37170;BME280;23062;13.952;100.608;2023-02-19T16:39:14;1011.06;;;30.60;56.22
37170;BME280;23062;13.952;100.608;2023-02-19T16:43:41;1011.09;;;30.61;56.25
37170;BME280;23062;13.952;100.608;2023-02-19T16:48:08;1011.07;;;30.59;56.29
37170;BME280;23062;13.952;100.608;2023-02-19T16:52:33;1011.08;;;30.59;56.31
37170;BME280;23062;13.952;100.608;2023-02-19T16:57:04;1011.14;;;30.58;56.32
37170;BME280;23062;13.952;100.608;2023-02-19T17:01:30;1011.07;;;30.58;56.32
37170;BME280;23062;13.952;100.608;2023-02-19T17:05:59;1011.04;;;30.58;56.30
37170;BME280;23062;13.952;100.608;2023-02-19T17:10:26;1010.99;;;30.58;56.27
37170;BME280;23062;13.952;100.608;2023-02-19T17:14:52;1011.01;;;30.58;56.22
37170;BME280;23062;13.952;100.608;2023-02-19T17:19:19;1011.01;;;30.57;56.26
37170;BME280;23062;13.952;100.608;2023-02-19T17:23:45;1011.03;;;30.57;56.21
37170;BME280;23062;13.952;100.608;2023-02-19T17:28:10;1011.05;;;30.57;56.24
37170;BME280;23062;13.952;100.608;2023-02-19T17:32:36;1010.99;;;30.57;56.22
37170;BME280;23062;13.952;100.608;2023-02-19T17:37:03;1010.97;;;30.56;56.19
37170;BME280;23062;13.952;100.608;2023-02-19T17:41:29;1010.91;;;30.55;56.21
37170;BME280;23062;13.952;100.608;2023-02-19T17:45:55;1010.88;;;30.55;56.25
37170;BME280;23062;13.952;100.608;2023-02-19T17:50:23;1010.84;;;30.54;56.20
37170;BME280;23062;13.952;100.608;2023-02-19T17:54:51;1010.80;;;30.54;56.25
37170;BME280;23062;13.952;100.608;2023-02-19T17:59:17;1010.86;;;30.54;56.15
37170;BME280;23062;13.952;100.608;2023-02-19T18:03:46;1010.82;;;30.53;56.13
37170;BME280;23062;13.952;100.608;2023-02-19T18:08:11;1010.83;;;30.52;56.16
37170;BME280;23062;13.952;100.608;2023-02-19T18:12:38;1010.73;;;30.52;56.07
37170;BME280;23062;13.952;100.608;2023-02-19T18:17:03;1010.68;;;30.51;56.02
37170;BME280;23062;13.952;100.608;2023-02-19T18:21:29;1010.64;;;30.51;56.01
37170;BME280;23062;13.952;100.608;2023-02-19T18:25:54;1010.59;;;30.51;55.89
37170;BME280;23062;13.952;100.608;2023-02-19T18:30:21;1010.58;;;30.51;55.92
37170;BME280;23062;13.952;100.608;2023-02-19T18:34:55;1010.55;;;30.50;55.94
37170;BME280;23062;13.952;100.608;2023-02-19T18:39:24;1010.60;;;30.50;55.94
37170;BME280;23062;13.952;100.608;2023-02-19T18:43:51;1010.55;;;30.49;55.95
37170;BME280;23062;13.952;100.608;2023-02-19T18:48:17;1010.55;;;30.48;55.95
37170;BME280;23062;13.952;100.608;2023-02-19T18:52:43;1010.43;;;30.48;55.94
37170;BME280;23062;13.952;100.608;2023-02-19T18:57:08;1010.41;;;30.48;55.92
37170;BME280;23062;13.952;100.608;2023-02-19T19:01:34;1010.37;;;30.47;55.92
37170;BME280;23062;13.952;100.608;2023-02-19T19:06:00;1010.43;;;30.47;55.89
37170;BME280;23062;13.952;100.608;2023-02-19T19:10:27;1010.36;;;30.46;55.87
37170;BME280;23062;13.952;100.608;2023-02-19T19:14:53;1010.34;;;30.45;55.82
37170;BME280;23062;13.952;100.608;2023-02-19T19:19:19;1010.38;;;30.45;55.80
37170;BME280;23062;13.952;100.608;2023-02-19T19:23:46;1010.36;;;30.44;55.67
37170;BME280;23062;13.952;100.608;2023-02-19T19:28:11;1010.34;;;30.44;55.52
37170;BME280;23062;13.952;100.608;2023-02-19T19:32:38;1010.31;;;30.43;55.41
37170;BME280;23062;13.952;100.608;2023-02-19T19:37:03;1010.31;;;30.43;55.35
37170;BME280;23062;13.952;100.608;2023-02-19T19:41:29;1010.32;;;30.43;55.28
37170;BME280;23062;13.952;100.608;2023-02-19T19:45:54;1010.31;;;30.42;55.18
37170;BME280;23062;13.952;100.608;2023-02-19T19:50:20;1010.33;;;30.42;55.17
37170;BME280;23062;13.952;100.608;2023-02-19T19:54:45;1010.29;;;30.41;55.11
37170;BME280;23062;13.952;100.608;2023-02-19T19:59:13;1010.36;;;30.41;54.93
37170;BME280;23062;13.952;100.608;2023-02-19T20:03:41;1010.36;;;30.40;54.91
37170;BME280;23062;13.952;100.608;2023-02-19T20:08:07;1010.35;;;30.39;54.79
37170;BME280;23062;13.952;100.608;2023-02-19T20:12:33;1010.35;;;30.38;54.64
37170;BME280;23062;13.952;100.608;2023-02-19T20:16:58;1010.32;;;30.38;54.59
37170;BME280;23062;13.952;100.608;2023-02-19T20:21:24;1010.33;;;30.37;54.46
37170;BME280;23062;13.952;100.608;2023-02-19T20:25:56;1010.31;;;30.35;54.36
37170;BME280;23062;13.952;100.608;2023-02-19T20:30:22;1010.27;;;30.34;54.19
37170;BME280;23062;13.952;100.608;2023-02-19T20:34:52;1010.30;;;30.34;54.12
37170;BME280;23062;13.952;100.608;2023-02-19T20:39:19;1010.37;;;30.33;53.98
37170;BME280;23062;13.952;100.608;2023-02-19T20:43:45;1010.47;;;30.33;53.82
37170;BME280;23062;13.952;100.608;2023-02-19T20:48:15;1010.50;;;30.32;53.87
37170;BME280;23062;13.952;100.608;2023-02-19T20:52:42;1010.47;;;30.32;53.81
37170;BME280;23062;13.952;100.608;2023-02-19T20:57:14;1010.55;;;30.30;53.74
37170;BME280;23062;13.952;100.608;2023-02-19T21:01:42;1010.52;;;30.30;53.84
37170;BME280;23062;13.952;100.608;2023-02-19T21:06:07;1010.60;;;30.30;53.83
37170;BME280;23062;13.952;100.608;2023-02-19T21:10:33;1010.60;;;30.29;53.75
37170;BME280;23062;13.952;100.608;2023-02-19T21:14:59;1010.62;;;30.28;53.85
37170;BME280;23062;13.952;100.608;2023-02-19T21:19:27;1010.72;;;30.27;53.93
37170;BME280;23062;13.952;100.608;2023-02-19T21:23:53;1010.75;;;30.26;53.81
37170;BME280;23062;13.952;100.608;2023-02-19T21:28:20;1010.74;;;30.25;53.85
37170;BME280;23062;13.952;100.608;2023-02-19T21:32:45;1010.77;;;30.25;53.82
37170;BME280;23062;13.952;100.608;2023-02-19T21:37:11;1010.78;;;30.25;53.80
37170;BME280;23062;13.952;100.608;2023-02-19T21:41:39;1010.77;;;30.24;53.83
37170;BME280;23062;13.952;100.608;2023-02-19T21:46:05;1010.78;;;30.24;53.87
37170;BME280;23062;13.952;100.608;2023-02-19T21:50:34;1010.82;;;30.22;53.88
37170;BME280;23062;13.952;100.608;2023-02-19T21:55:00;1010.86;;;30.22;53.85
37170;BME280;23062;13.952;100.608;2023-02-19T21:59:25;1010.87;;;30.21;54.10
37170;BME280;23062;13.952;100.608;2023-02-19T22:03:55;1010.90;;;30.18;54.00
37170;BME280;23062;13.952;100.608;2023-02-19T22:08:20;1010.96;;;30.20;54.06
37170;BME280;23062;13.952;100.608;2023-02-19T22:12:48;1010.96;;;30.19;54.17
37170;BME280;23062;13.952;100.608;2023-02-19T22:17:14;1011.05;;;30.18;54.13
37170;BME280;23062;13.952;100.608;2023-02-19T22:21:41;1011.23;;;30.16;54.28
37170;BME280;23062;13.952;100.608;2023-02-19T22:26:07;1011.24;;;30.06;53.00
37170;BME280;23062;13.952;100.608;2023-02-19T22:30:36;1011.40;;;29.94;52.74
37170;BME280;23062;13.952;100.608;2023-02-19T22:35:01;1011.56;;;29.89;52.46
37170;BME280;23062;13.952;100.608;2023-02-19T22:39:27;1011.61;;;29.84;52.26
37170;BME280;23062;13.952;100.608;2023-02-19T22:43:56;1011.66;;;29.83;52.33
37170;BME280;23062;13.952;100.608;2023-02-19T22:48:22;1011.76;;;29.78;52.12
37170;BME280;23062;13.952;100.608;2023-02-19T22:52:48;1011.87;;;29.74;52.07
37170;BME280;23062;13.952;100.608;2023-02-19T22:57:15;1012.00;;;29.73;51.75
37170;BME280;23062;13.952;100.608;2023-02-19T23:01:41;1012.04;;;29.68;51.57
37170;BME280;23062;13.952;100.608;2023-02-19T23:06:08;1012.08;;;29.63;51.44
37170;BME280;23062;13.952;100.608;2023-02-19T23:10:33;1012.17;;;29.65;51.47
37170;BME280;23062;13.952;100.608;2023-02-19T23:14:59;1012.26;;;29.61;50.72
37170;BME280;23062;13.952;100.608;2023-02-19T23:19:25;1012.37;;;29.60;51.91
37170;BME280;23062;13.952;100.608;2023-02-19T23:23:51;1012.50;;;29.61;53.06
37170;BME280;23062;13.952;100.608;2023-02-19T23:28:17;1012.58;;;29.60;54.31
37170;BME280;23062;13.952;100.608;2023-02-19T23:32:42;1012.61;;;29.53;53.21
37170;BME280;23062;13.952;100.608;2023-02-19T23:37:07;1012.69;;;29.48;52.89
37170;BME280;23062;13.952;100.608;2023-02-19T23:41:33;1012.69;;;29.38;53.73
37170;BME280;23062;13.952;100.608;2023-02-19T23:45:58;1012.69;;;29.06;53.80
37170;BME280;23062;13.952;100.608;2023-02-19T23:50:26;1012.78;;;28.65;53.20
37170;BME280;23062;13.952;100.608;2023-02-19T23:54:51;1012.91;;;28.59;53.74
37170;BME280;23062;13.952;100.608;2023-02-19T23:59:16;1013.00;;;28.54;55.56
